createdAt,value
2023-02-05T00:00:31.185Z,98554.56
2023-02-05T00:02:59.468Z,98538.25
2023-02-05T00:05:27.682Z,98486.50
2023-02-05T00:07:55.887Z,98516.25
2023-02-05T00:10:25.474Z,98538.78
2023-02-05T00:12:53.672Z,98467.66
2023-02-05T00:15:21.898Z,98514.97
2023-02-05T00:17:50.122Z,98501.97
2023-02-05T00:20:18.926Z,98505.25
2023-02-05T00:22:47.165Z,98479.28
2023-02-05T00:25:15.406Z,98498.09
2023-02-05T00:27:44.999Z,98520.63
2023-02-05T00:30:14.326Z,98542.06
2023-02-05T00:32:42.591Z,98526.75
2023-02-05T00:35:10.810Z,98472.09
2023-02-05T00:37:39.448Z,98470.00
2023-02-05T00:40:08.742Z,98497.56
2023-02-05T00:42:37.003Z,98618.34
2023-02-05T00:45:10.791Z,98497.81
2023-02-05T00:47:39.387Z,98548.84
2023-02-05T00:50:08.518Z,98511.91
2023-02-05T00:52:37.044Z,98548.66
2023-02-05T00:55:06.257Z,98500.78
2023-02-05T00:57:34.493Z,98525.06
2023-02-05T01:00:02.755Z,98484.97
2023-02-05T01:02:56.456Z,98515.78
2023-02-05T01:05:49.787Z,98567.44
2023-02-05T01:08:17.946Z,98469.59
2023-02-05T01:10:48.018Z,98497.06
2023-02-05T01:13:18.181Z,98510.13
2023-02-05T01:15:47.143Z,98512.16
2023-02-05T01:18:16.738Z,98522.69
2023-02-05T01:20:45.275Z,98508.94
2023-02-05T01:23:13.503Z,98506.47
2023-02-05T01:25:41.652Z,98489.78
2023-02-05T01:28:10.201Z,98518.94
2023-02-05T01:30:38.504Z,98490.56
2023-02-05T01:33:06.825Z,98510.41
2023-02-05T01:35:36.648Z,98459.81
2023-02-05T01:38:04.905Z,98471.22
2023-02-05T01:40:34.710Z,98456.72
2023-02-05T01:43:02.884Z,98505.63
2023-02-05T01:45:51.069Z,98505.13
2023-02-05T01:48:24.003Z,98495.34
2023-02-05T01:50:57.622Z,98461.91
2023-02-05T01:53:29.853Z,98495.44
2023-02-05T01:56:01.554Z,98440.97
2023-02-05T01:58:34.809Z,98481.69
2023-02-05T02:01:03.384Z,98458.34
2023-02-05T02:03:33.104Z,98603.28
2023-02-05T02:06:04.804Z,98492.59
2023-02-05T02:08:33.770Z,98444.53
2023-02-05T02:11:06.356Z,98399.78
2023-02-05T02:13:36.701Z,98418.97
2023-02-05T02:16:08.199Z,98431.16
2023-02-05T02:18:38.757Z,98446.72
2023-02-05T02:22:08.756Z,98410.88
2023-02-05T02:25:28.115Z,98461.94
2023-02-05T02:28:00.621Z,98414.31
2023-02-05T02:30:36.524Z,98471.78
2023-02-05T02:33:15.221Z,98402.44
2023-02-05T02:35:53.705Z,98486.25
2023-02-05T02:38:29.215Z,98434.97
2023-02-05T02:41:05.934Z,98454.72
2023-02-05T02:43:43.286Z,98480.94
2023-02-05T02:46:22.813Z,98406.53
2023-02-05T02:48:53.960Z,98367.91
2023-02-05T02:51:24.698Z,98390.72
2023-02-05T02:54:00.489Z,98404.69
2023-02-05T02:56:55.403Z,98384.03
2023-02-05T02:59:27.355Z,98225.69
2023-02-05T03:02:00.193Z,98448.56
2023-02-05T03:04:37.839Z,98457.34
2023-02-05T03:07:15.516Z,98380.53
2023-02-05T03:09:54.028Z,98383.06
2023-02-05T03:12:30.474Z,98439.59
2023-02-05T03:15:00.673Z,98379.75
2023-02-05T03:17:30.524Z,98486.25
2023-02-05T03:20:05.424Z,98410.91
2023-02-05T03:22:33.908Z,98430.00
2023-02-05T03:25:03.244Z,98439.56
2023-02-05T03:27:34.078Z,98389.47
2023-02-05T03:30:06.703Z,98399.00
2023-02-05T03:32:49.678Z,98397.88
2023-02-05T03:35:36.157Z,98324.16
2023-02-05T03:38:32.780Z,98374.09
2023-02-05T03:41:14.778Z,98383.44
2023-02-05T03:43:51.026Z,98355.09
2023-02-05T03:46:32.510Z,98368.09
2023-02-05T03:49:15.099Z,98385.22
2023-02-05T03:51:52.363Z,98355.44
2023-02-05T03:54:35.257Z,98384.13
2023-02-05T03:57:12.084Z,98356.63
2023-02-05T03:59:42.266Z,98366.00
2023-02-05T04:02:13.473Z,98369.63
2023-02-05T04:04:45.033Z,98390.63
2023-02-05T04:07:15.026Z,98375.34
2023-02-05T04:09:43.665Z,98326.47
2023-02-05T04:12:12.190Z,98352.50
2023-02-05T04:14:41.426Z,98431.88
2023-02-05T04:17:13.441Z,98368.31
2023-02-05T04:19:42.781Z,98352.09
2023-02-05T04:22:12.805Z,98314.53
2023-02-05T04:24:44.459Z,98334.16
2023-02-05T04:27:12.686Z,98353.09
2023-02-05T04:29:41.674Z,98395.03
2023-02-05T04:32:10.008Z,98409.84
2023-02-05T04:34:39.605Z,98375.59
2023-02-05T04:37:10.698Z,98383.25
2023-02-05T04:39:38.969Z,98358.78
2023-02-05T04:42:07.357Z,98374.81
2023-02-05T04:44:35.501Z,98217.91
2023-02-05T04:47:03.671Z,98327.50
2023-02-05T04:49:33.945Z,98408.78
2023-02-05T04:52:03.697Z,98380.16
2023-02-05T04:54:31.890Z,98400.53
2023-02-05T04:57:00.037Z,98412.81
2023-02-05T04:59:30.005Z,98403.50
2023-02-05T05:01:58.378Z,98365.84
2023-02-05T05:07:21.228Z,98428.66
2023-02-05T05:09:51.011Z,98359.16
2023-02-05T05:12:20.505Z,98361.75
2023-02-05T05:14:48.907Z,98335.88
2023-02-05T05:17:17.141Z,98317.22
2023-02-05T05:19:45.390Z,98363.38
2023-02-05T05:22:13.602Z,98378.25
2023-02-05T05:24:43.171Z,98335.28
2023-02-05T05:27:11.334Z,98448.41
2023-02-05T05:29:39.919Z,98376.66
2023-02-05T05:32:08.139Z,98351.66
2023-02-05T05:34:36.468Z,98360.00
2023-02-05T05:37:04.633Z,98386.88
2023-02-05T05:39:50.602Z,98414.09
2023-02-05T05:42:37.873Z,98342.63
2023-02-05T05:45:09.341Z,98367.56
2023-02-05T05:47:37.910Z,98376.31
2023-02-05T05:50:07.265Z,98338.78
2023-02-05T05:52:35.529Z,98354.53
2023-02-05T05:55:03.768Z,98383.38
2023-02-05T05:57:33.255Z,98374.25
2023-02-05T06:00:02.637Z,98364.50
2023-02-05T06:02:44.185Z,98375.25
2023-02-05T06:05:12.812Z,98258.03
2023-02-05T06:07:41.006Z,98338.28
2023-02-05T06:10:10.462Z,98347.75
2023-02-05T06:12:40.222Z,98333.66
2023-02-05T06:15:09.799Z,98362.28
2023-02-05T06:17:38.084Z,98340.03
2023-02-05T06:20:07.427Z,98387.09
2023-02-05T06:22:36.231Z,98350.03
2023-02-05T06:25:05.323Z,98338.06
2023-02-05T06:27:33.957Z,98398.66
2023-02-05T06:30:04.237Z,98349.00
2023-02-05T06:32:32.480Z,98332.25
2023-02-05T06:35:00.698Z,98348.78
2023-02-05T06:37:46.206Z,98375.78
2023-02-05T06:40:15.959Z,98336.97
2023-02-05T06:42:44.239Z,98357.44
2023-02-05T06:45:13.923Z,98351.47
2023-02-05T06:47:42.120Z,98285.25
2023-02-05T06:50:11.110Z,98340.66
2023-02-05T06:52:39.611Z,98160.97
2023-02-05T06:55:08.728Z,98228.00
2023-02-05T06:57:36.990Z,98334.19
2023-02-05T07:00:07.545Z,98345.91
2023-02-05T07:02:37.218Z,98358.59
2023-02-05T07:05:05.664Z,98404.84
2023-02-05T07:07:34.383Z,98305.34
2023-02-05T07:10:03.098Z,98374.94
2023-02-05T07:12:31.523Z,98281.59
2023-02-05T07:14:59.742Z,98327.06
2023-02-05T07:17:27.949Z,98343.88
2023-02-05T07:19:58.734Z,98386.75
2023-02-05T07:22:27.339Z,98373.22
2023-02-05T07:24:55.551Z,98379.22
2023-02-05T07:27:23.838Z,98291.78
2023-02-05T07:29:51.981Z,98281.44
2023-02-05T07:32:20.131Z,98322.50
2023-02-05T07:34:48.204Z,98386.94
2023-02-05T07:37:17.584Z,98358.50
2023-02-05T07:39:45.738Z,98306.78
2023-02-05T07:42:13.960Z,98358.50
2023-02-05T07:44:50.199Z,98350.16
2023-02-05T07:47:18.376Z,98348.59
2023-02-05T07:49:46.874Z,98330.31
2023-02-05T07:52:15.058Z,98372.25
2023-02-05T07:54:44.841Z,98331.47
2023-02-05T07:57:13.107Z,98310.78
2023-02-05T07:59:41.396Z,98335.06
2023-02-05T08:02:10.825Z,98302.97
2023-02-05T08:04:39.166Z,98338.44
2023-02-05T08:07:07.927Z,98278.53
2023-02-05T08:09:37.106Z,98293.44
2023-02-05T08:12:07.786Z,98319.75
2023-02-05T08:14:36.855Z,98349.16
2023-02-05T08:17:07.110Z,98400.38
2023-02-05T08:19:37.401Z,98296.34
2023-02-05T08:22:05.690Z,98307.66
2023-02-05T08:24:33.965Z,98456.47
2023-02-05T08:27:02.215Z,98325.63
2023-02-05T08:29:32.177Z,98351.53
2023-02-05T08:32:00.891Z,98350.75
2023-02-05T08:34:29.424Z,98323.28
2023-02-05T08:36:57.836Z,98345.56
2023-02-05T08:39:26.916Z,98351.28
2023-02-05T08:41:57.020Z,98310.06
2023-02-05T08:44:25.774Z,98308.31
2023-02-05T08:46:55.323Z,98295.13
2023-02-05T08:49:23.731Z,98318.88
2023-02-05T08:51:52.197Z,98338.91
2023-02-05T08:54:20.626Z,98278.66
2023-02-05T08:56:51.931Z,98280.94
2023-02-05T08:59:20.890Z,98268.25
2023-02-05T09:02:14.248Z,98248.78
2023-02-05T09:04:44.166Z,98243.22
2023-02-05T09:07:20.414Z,98221.75
2023-02-05T09:09:48.970Z,98230.63
2023-02-05T09:12:17.512Z,98222.28
2023-02-05T09:14:45.740Z,98259.81
2023-02-05T09:17:14.455Z,98219.09
2023-02-05T09:19:44.051Z,98195.03
2023-02-05T09:22:12.344Z,98207.09
2023-02-05T09:24:40.576Z,98232.06
2023-02-05T09:27:08.821Z,98238.59
2023-02-05T09:29:37.252Z,98228.91
2023-02-05T09:32:06.152Z,98246.53
2023-02-05T09:34:34.438Z,98167.41
2023-02-05T09:37:04.076Z,98223.03
2023-02-05T09:40:19.906Z,98275.22
2023-02-05T09:42:32.885Z,98234.97
2023-02-05T09:45:19.705Z,98230.31
2023-02-05T09:47:59.036Z,98206.88
2023-02-05T09:50:30.245Z,98272.84
2023-02-05T09:53:05.780Z,98226.28
2023-02-05T09:55:41.049Z,98249.72
2023-02-05T09:58:15.009Z,98181.38
2023-02-05T10:00:48.572Z,98216.13
2023-02-05T10:03:27.076Z,98205.28
2023-02-05T10:06:15.989Z,98234.47
2023-02-05T10:08:57.456Z,98182.06
2023-02-05T10:11:32.909Z,98216.22
2023-02-05T10:14:13.594Z,98185.34
2023-02-05T10:17:02.426Z,98186.31
2023-02-05T10:19:53.132Z,98209.63
2023-02-05T10:22:28.264Z,98155.53
2023-02-05T10:25:19.801Z,98214.13
2023-02-05T10:27:58.086Z,98284.25
2023-02-05T10:30:32.282Z,98228.03
2023-02-05T10:33:01.982Z,98207.72
2023-02-05T10:35:44.318Z,98195.78
2023-02-05T10:38:18.556Z,98134.22
2023-02-05T10:40:48.179Z,98196.09
2023-02-05T10:43:26.498Z,98190.00
2023-02-05T10:45:56.526Z,98188.97
2023-02-05T10:48:40.733Z,98200.19
2023-02-05T10:51:14.075Z,97971.44
2023-02-05T10:53:42.514Z,98151.75
2023-02-05T10:56:18.764Z,98102.38
2023-02-05T10:58:53.679Z,98033.00
2023-02-05T11:01:29.760Z,98177.72
2023-02-05T11:04:16.442Z,98119.47
2023-02-05T11:06:48.731Z,98153.66
2023-02-05T11:09:33.375Z,98111.31
2023-02-05T11:12:17.613Z,98164.78
2023-02-05T11:14:49.330Z,98147.09
2023-02-05T11:17:24.509Z,98125.69
2023-02-05T11:19:57.498Z,98136.66
2023-02-05T11:22:30.162Z,98165.03
2023-02-05T11:25:11.625Z,98151.38
2023-02-05T11:27:41.245Z,98078.16
2023-02-05T11:30:50.444Z,98121.84
2023-02-05T11:33:27.934Z,98143.28
2023-02-05T11:36:00.371Z,98103.34
2023-02-05T11:38:37.453Z,98151.38
2023-02-05T11:41:09.173Z,98094.66
2023-02-05T11:43:46.553Z,98117.97
2023-02-05T11:46:19.523Z,98065.59
2023-02-05T11:48:55.056Z,98118.06
2023-02-05T11:51:40.963Z,98124.22
2023-02-05T11:54:22.512Z,98118.50
2023-02-05T11:57:08.009Z,98119.09
2023-02-05T11:59:38.166Z,98093.13
2023-02-05T12:02:34.864Z,98103.13
2023-02-05T12:05:13.696Z,98102.28
2023-02-05T12:07:48.130Z,98072.78
2023-02-05T12:10:28.841Z,98085.63
2023-02-05T12:13:09.985Z,98106.44
2023-02-05T12:15:46.457Z,98100.91
2023-02-05T12:18:27.408Z,98085.25
2023-02-05T12:21:13.592Z,98036.09
2023-02-05T12:24:13.954Z,98074.91
2023-02-05T12:26:46.113Z,98064.38
2023-02-05T12:29:37.406Z,98084.53
2023-02-05T12:32:17.880Z,98070.81
2023-02-05T12:35:11.792Z,98049.38
2023-02-05T12:37:49.296Z,98015.00
2023-02-05T12:40:40.986Z,98072.25
2023-02-05T12:43:26.212Z,98049.03
2023-02-05T12:46:04.283Z,98073.09
2023-02-05T12:48:53.544Z,98088.00
2023-02-05T12:51:38.517Z,98040.13
2023-02-05T12:54:26.478Z,98052.22
2023-02-05T12:57:00.372Z,98037.63
2023-02-05T12:59:40.285Z,98051.84
2023-02-05T13:02:23.449Z,97919.44
2023-02-05T13:05:12.398Z,98010.13
2023-02-05T13:07:46.247Z,98054.75
2023-02-05T13:10:20.092Z,98066.72
2023-02-05T13:12:53.706Z,98013.56
2023-02-05T13:15:25.359Z,98052.75
2023-02-05T13:18:01.649Z,98021.88
2023-02-05T13:20:55.722Z,97976.13
2023-02-05T13:23:41.981Z,98041.22
2023-02-05T13:26:32.385Z,98013.75
2023-02-05T13:29:30.172Z,98006.28
2023-02-05T13:32:14.676Z,98073.22
2023-02-05T13:34:43.726Z,97965.53
2023-02-05T13:37:34.577Z,98022.91
2023-02-05T13:40:27.257Z,98013.91
2023-02-05T13:43:26.074Z,98013.25
2023-02-05T13:46:40.489Z,98044.13
2023-02-05T13:49:54.159Z,98012.41
2023-02-05T13:52:59.174Z,98020.91
2023-02-05T13:55:52.438Z,98030.06
2023-02-05T13:58:24.275Z,98037.75
2023-02-05T14:01:01.429Z,98030.84
2023-02-05T14:03:39.665Z,98029.69
2023-02-05T14:06:21.734Z,98019.78
2023-02-05T14:08:59.269Z,98004.38
2023-02-05T14:11:27.489Z,98023.59
2023-02-05T14:14:31.747Z,97997.31
2023-02-05T14:17:01.610Z,98027.41
2023-02-05T14:19:56.946Z,98008.75
2023-02-05T14:22:39.053Z,98007.03
2023-02-05T14:26:01.985Z,98057.94
2023-02-05T14:28:49.585Z,98055.31
2023-02-05T14:31:57.359Z,98038.06
2023-02-05T14:34:50.177Z,98004.53
2023-02-05T14:37:34.663Z,98025.94
2023-02-05T14:40:32.932Z,98020.72
2023-02-05T14:43:10.451Z,98027.16
2023-02-05T14:45:47.725Z,97997.66
2023-02-05T14:48:26.311Z,97995.97
2023-02-05T14:51:06.767Z,98001.78
2023-02-05T14:53:38.037Z,98020.47
2023-02-05T14:56:07.068Z,97997.84
2023-02-05T14:58:39.748Z,98053.16
2023-02-05T15:01:45.835Z,97993.44
2023-02-05T15:04:49.482Z,98037.50
2023-02-05T15:07:24.002Z,98079.66
2023-02-05T15:09:58.617Z,98229.97
2023-02-05T15:12:56.204Z,98047.69
2023-02-05T15:15:35.196Z,98062.56
2023-02-05T15:18:11.626Z,98046.78
2023-02-05T15:20:41.896Z,98063.75
2023-02-05T15:23:23.522Z,98055.38
2023-02-05T15:26:00.279Z,98034.44
2023-02-05T15:28:35.161Z,98032.69
2023-02-05T15:31:10.568Z,98035.72
2023-02-05T15:33:49.722Z,98042.78
2023-02-05T15:36:28.365Z,98070.41
2023-02-05T15:39:10.554Z,98066.81
2023-02-05T15:41:43.467Z,98063.88
2023-02-05T15:44:24.889Z,98085.97
2023-02-05T15:46:54.725Z,98074.28
2023-02-05T15:49:39.104Z,98051.66
2023-02-05T15:52:08.134Z,98082.50
2023-02-05T15:54:38.062Z,98096.63
2023-02-05T15:57:09.089Z,98107.03
2023-02-05T15:59:37.396Z,98108.72
2023-02-05T16:02:15.007Z,97990.44
2023-02-05T16:04:44.608Z,98105.97
2023-02-05T16:07:23.371Z,98076.06
2023-02-05T16:09:56.111Z,98146.78
2023-02-05T16:12:24.834Z,98155.66
2023-02-05T16:15:05.103Z,98034.25
2023-02-05T16:17:39.544Z,98127.38
2023-02-05T16:20:22.168Z,98157.66
2023-02-05T16:22:55.334Z,98144.97
2023-02-05T16:25:38.507Z,98132.50
2023-02-05T16:28:14.786Z,98076.91
2023-02-05T16:30:49.532Z,98122.19
2023-02-05T16:33:34.690Z,98079.53
2023-02-05T16:36:07.845Z,98067.47
2023-02-05T16:38:37.281Z,98136.88
2023-02-05T16:41:23.107Z,98078.22
2023-02-05T16:43:53.775Z,98135.53
2023-02-05T16:46:30.583Z,98074.66
2023-02-05T16:49:01.152Z,98138.06
2023-02-05T16:51:38.463Z,98101.34
2023-02-05T16:54:37.967Z,98192.84
2023-02-05T16:57:11.461Z,98118.28
2023-02-05T16:59:51.384Z,98158.03
2023-02-05T17:02:29.348Z,98160.38
2023-02-05T17:05:22.585Z,98143.88
2023-02-05T17:07:56.897Z,98161.28
2023-02-05T17:10:25.828Z,98155.31
2023-02-05T17:13:01.051Z,98125.81
2023-02-05T17:15:40.506Z,98115.28
2023-02-05T17:18:22.815Z,98187.22
2023-02-05T17:20:51.372Z,98100.31
2023-02-05T17:23:20.851Z,98166.56
2023-02-05T17:25:55.603Z,98107.19
2023-02-05T17:28:27.471Z,98126.00
2023-02-05T17:30:58.739Z,98169.09
2023-02-05T17:33:29.493Z,98171.38
2023-02-05T17:35:57.728Z,98168.41
2023-02-05T17:38:27.240Z,98204.09
2023-02-05T17:41:15.450Z,98229.97
2023-02-05T17:43:43.658Z,98219.84
2023-02-05T17:46:14.831Z,98231.16
2023-02-05T17:48:44.682Z,98209.28
2023-02-05T17:51:21.809Z,98145.31
2023-02-05T17:53:52.399Z,98045.56
2023-02-05T17:56:21.985Z,98199.31
2023-02-05T17:58:52.111Z,98231.63
2023-02-05T18:01:21.168Z,98154.09
2023-02-05T18:03:49.487Z,98203.59
2023-02-05T18:06:20.192Z,98187.03
2023-02-05T18:08:48.384Z,98191.81
2023-02-05T18:11:17.890Z,98184.91
2023-02-05T18:13:46.096Z,98197.50
2023-02-05T18:16:14.358Z,98218.13
2023-02-05T18:18:43.057Z,98123.84
2023-02-05T18:21:11.270Z,98056.56
2023-02-05T18:23:39.520Z,98200.16
2023-02-05T18:26:11.122Z,98193.75
2023-02-05T18:28:41.104Z,98238.34
2023-02-05T18:31:10.500Z,98171.69
2023-02-05T18:33:39.095Z,98176.16
2023-02-05T18:36:11.020Z,98202.72
2023-02-05T18:38:40.165Z,98176.06
2023-02-05T18:41:10.394Z,98216.13
2023-02-05T18:43:40.630Z,98244.25
2023-02-05T18:46:11.605Z,98265.75
2023-02-05T18:48:41.043Z,98237.06
2023-02-05T18:51:11.648Z,98214.03
2023-02-05T18:53:43.207Z,98247.50
2023-02-05T18:56:16.540Z,98233.16
2023-02-05T18:58:52.256Z,98293.44
2023-02-05T19:01:29.178Z,98238.03
2023-02-05T19:04:10.096Z,98193.06
2023-02-05T19:06:38.468Z,98223.22
2023-02-05T19:09:06.666Z,98269.63
2023-02-05T19:11:40.815Z,98295.94
2023-02-05T19:14:14.409Z,98226.72
2023-02-05T19:16:43.439Z,98185.72
2023-02-05T19:19:14.271Z,98269.28
2023-02-05T19:21:44.847Z,98289.63
2023-02-05T19:24:14.794Z,98282.31
2023-02-05T19:26:44.701Z,98276.16
2023-02-05T19:29:17.491Z,98267.72
2023-02-05T19:31:46.661Z,98220.31
2023-02-05T19:34:15.150Z,98251.72
2023-02-05T19:36:44.701Z,98259.56
2023-02-05T19:39:14.352Z,98288.38
2023-02-05T19:41:45.225Z,98278.06
2023-02-05T19:44:15.088Z,98335.00
2023-02-05T19:46:45.209Z,98263.38
2023-02-05T19:49:15.882Z,98271.94
2023-02-05T19:51:46.728Z,98190.28
2023-02-05T19:54:15.946Z,98239.84
2023-02-05T19:56:45.186Z,98203.53
2023-02-05T19:59:16.691Z,98284.88
2023-02-05T20:01:45.596Z,98312.25
2023-02-05T20:04:17.524Z,98288.16
2023-02-05T20:06:47.226Z,98381.63
2023-02-05T20:09:18.313Z,98325.31
2023-02-05T20:11:48.965Z,98168.84
2023-02-05T20:14:18.766Z,98288.94
2023-02-05T20:16:48.190Z,98263.09
2023-02-05T20:19:18.144Z,98329.31
2023-02-05T20:21:47.713Z,98324.81
2023-02-05T20:24:17.352Z,98304.09
2023-02-05T20:26:48.274Z,98237.63
2023-02-05T20:29:35.770Z,98316.16
2023-02-05T20:32:04.395Z,98305.22
2023-02-05T20:34:36.075Z,98340.19
2023-02-05T20:37:06.912Z,98331.47
2023-02-05T20:39:39.624Z,98299.31
2023-02-05T20:42:07.958Z,98292.16
2023-02-05T20:44:38.131Z,98287.94
2023-02-05T20:47:08.181Z,98317.16
2023-02-05T20:49:38.125Z,98304.94
2023-02-05T20:52:06.847Z,98373.81
2023-02-05T20:54:37.233Z,98316.38
2023-02-05T20:57:05.547Z,98318.00
2023-02-05T20:59:34.501Z,98319.53
2023-02-05T21:02:28.779Z,98375.44
2023-02-05T21:04:57.410Z,98345.22
2023-02-05T21:07:29.576Z,98361.28
2023-02-05T21:09:59.230Z,98405.47
2023-02-05T21:12:31.148Z,98363.75
2023-02-05T21:14:59.500Z,98355.31
2023-02-05T21:17:29.085Z,98375.25
2023-02-05T21:19:57.315Z,98407.09
2023-02-05T21:22:25.602Z,98429.56
2023-02-05T21:24:53.798Z,98344.47
2023-02-05T21:27:24.166Z,98411.97
2023-02-05T21:29:52.514Z,98437.88
2023-02-05T21:32:20.642Z,98427.47
2023-02-05T21:34:50.266Z,98184.81
2023-02-05T21:37:18.686Z,98349.34
2023-02-05T21:39:46.874Z,98398.34
2023-02-05T21:42:15.138Z,98417.56
2023-02-05T21:44:44.198Z,98413.50
2023-02-05T21:47:12.369Z,98406.34
2023-02-05T21:49:40.561Z,98408.66
2023-02-05T21:52:10.186Z,98366.97
2023-02-05T21:54:38.409Z,98365.84
2023-02-05T21:57:08.328Z,98392.41
2023-02-05T21:59:36.556Z,98358.28
2023-02-05T22:02:04.765Z,98376.97
2023-02-05T22:04:32.950Z,98395.25
2023-02-05T22:07:01.133Z,98406.84
2023-02-05T22:09:30.688Z,98427.09
2023-02-05T22:12:03.603Z,98402.94
2023-02-05T22:14:31.851Z,98457.28
2023-02-05T22:17:00.370Z,98383.28
2023-02-05T22:19:29.364Z,98389.94
2023-02-05T22:21:57.575Z,98387.63
2023-02-05T22:24:25.804Z,98414.19
2023-02-05T22:26:55.488Z,98442.09
2023-02-05T22:29:23.668Z,98455.00
2023-02-05T22:31:54.093Z,98409.56
2023-02-05T22:34:23.886Z,98460.34
2023-02-05T22:36:52.091Z,98450.28
2023-02-05T22:39:20.264Z,98491.56
2023-02-05T22:41:48.480Z,98517.75
2023-02-05T22:44:18.036Z,98504.81
2023-02-05T22:46:46.315Z,98478.19
2023-02-05T22:49:16.143Z,98472.53
2023-02-05T22:51:45.117Z,98458.97
2023-02-05T22:54:15.911Z,98478.00
2023-02-05T22:56:44.449Z,98521.28
2023-02-05T22:59:13.493Z,98488.44
2023-02-05T23:01:43.080Z,98513.31
2023-02-05T23:04:20.118Z,98481.91
2023-02-05T23:06:48.731Z,98507.06
2023-02-05T23:09:19.254Z,98513.94
2023-02-05T23:11:47.600Z,98509.41
2023-02-05T23:14:18.152Z,98529.34
2023-02-05T23:16:49.280Z,98493.38
2023-02-05T23:19:20.576Z,98540.94
2023-02-05T23:21:49.766Z,98517.81
2023-02-05T23:24:19.203Z,98520.41
2023-02-05T23:26:50.829Z,98438.75
2023-02-05T23:29:19.660Z,98523.75
2023-02-05T23:31:49.448Z,98522.69
2023-02-05T23:34:17.664Z,98517.34
2023-02-05T23:36:46.066Z,98523.28
2023-02-05T23:39:15.369Z,98553.25
2023-02-05T23:41:43.551Z,98524.19
2023-02-05T23:44:15.700Z,98537.16
2023-02-05T23:46:45.752Z,98555.19
2023-02-05T23:49:16.632Z,98528.59
2023-02-05T23:51:44.981Z,98513.81
2023-02-05T23:54:14.044Z,98518.00
2023-02-05T23:56:42.764Z,98522.50
2023-02-05T23:59:13.590Z,98487.97
